Terminal Aerodrome Forecast
Issued by NWS

Home | Current Version | Previous Version | Text Only | Print | Product List | Glossary Off
Versions: 1 2 3 4 5 6 7 8 9 10 11 12 13 14 15 16 17 18 19 20 21 22

000
FTUS43 KBIS 230940 AAA
TAFJMS
TAF AMD
KJMS 230940Z 2310/2406 35013KT P6SM VCSH BKN007 OVC012
     FM231200 34007KT P6SM BKN008 BKN120
     FM232000 02010KT P6SM VCSH BKN035 BKN110
     FM240000 03012KT P6SM SHRA BKN025 OVC110
     FM240500 03014KT 5SM SHRA BKN010 OVC030=

USA.gov is the U.S. government's official web portal to all federal, state and local government web resources and services.